Date,TemperatureHighF,TemperatureAvgF,TemperatureLowF,DewpointHighF,DewpointAvgF,DewpointLowF,HumidityHigh,HumidityAvg,HumidityLow,PressureMaxIn,PressureMinIn,WindSpeedMaxMPH,WindSpeedAvgMPH,GustSpeedMaxMPH,PrecipitationSumIn
2013-4-24,68,62,44,19,15,10,25,16,11,0.00,40.00,11,7,21,0.00
2013-4-25,74,54,28,39,24,14,75,38,12,0.00,40.00,12,5,25,0.00
2013-4-26,77,61,35,42,34,21,92,44,13,0.00,40.00,11,5,18,0.00
2013-4-27,78,62,38,42,32,21,83,41,12,0.00,40.00,10,5,22,0.00
2013-4-28,71,61,50,36,31,22,51,33,23,0.00,40.00,11,7,24,0.00
2013-4-29,62,53,45,42,34,26,68,49,33,0.00,40.00,12,6,22,0.00
2013-4-30,60,48,32,30,15,2,76,35,11,0.00,40.00,10,6,17,0.00
2013-5-1,67,50,33,19,14,10,47,27,11,0.00,40.00,8,5,19,0.00
2013-5-2,77,58,33,21,16,7,60,23,10,0.00,40.00,7,4,14,0.00
2013-5-3,76,63,39,36,26,16,77,29,14,0.00,40.00,11,5,19,0.00
2013-5-4,69,57,47,37,28,22,54,35,21,0.00,40.00,10,6,24,0.00
2013-5-5,72,58,44,43,35,30,67,43,22,0.00,40.00,11,6,18,0.02
2013-5-6,71,54,39,50,43,36,92,69,33,0.00,40.00,11,5,20,0.33
2013-5-7,65,55,50,52,49,46,91,80,54,0.00,40.00,11,7,19,0.36
2013-5-8,70,54,43,54,48,40,100,80,43,0.00,40.00,12,5,28,0.22
2013-5-9,75,60,43,55,46,41,100,66,30,0.00,40.00,7,3,19,0.04
2013-5-10,82,68,49,53,46,42,89,51,24,0.00,40.00,9,4,16,0.00
2013-5-11,85,70,49,55,48,35,97,53,18,0.00,40.00,16,6,26,0.00
2013-5-12,84,68,51,54,44,33,90,50,17,0.00,40.00,13,5,23,0.00
2013-5-13,80,61,43,47,42,32,89,53,25,0.00,40.00,11,4,22,0.00
2013-5-14,75,64,47,46,36,31,74,40,21,0.00,40.00,10,6,20,0.00
2013-5-15,69,58,45,44,39,36,82,51,31,0.00,40.00,9,6,19,0.00
2013-5-16,58,45,42,46,23,-100,93,79,59,0.00,40.00,7,4,17,0.31
2013-5-17,63,50,42,40,30,-100,87,61,27,0.00,40.00,10,6,17,0.15
2013-5-18,61,48,31,42,36,30,97,66,37,0.00,40.00,8,4,21,0.00
2013-5-19,65,54,37,38,34,30,82,50,30,0.00,40.00,10,5,17,0.00
2013-5-20,74,58,36,41,33,29,90,43,21,0.00,40.00,7,3,18,0.00
2013-5-21,59,48,32,42,31,19,80,54,22,0.00,40.00,14,7,31,0.00
2013-5-22,51,39,27,29,23,19,80,56,34,0.00,40.00,7,5,17,0.00
2013-5-23,56,44,34,36,30,25,94,62,30,0.00,40.00,10,5,20,0.04
2013-5-24,64,50,37,34,31,25,80,52,25,0.00,40.00,10,6,21,0.02
2013-5-25,66,54,39,40,34,29,77,50,29,0.00,40.00,12,6,21,0.00
2013-5-26,63,53,46,42,37,33,76,56,34,0.00,40.00,7,5,20,0.01
2013-5-27,57,50,42,47,42,35,86,74,60,0.00,40.00,13,6,22,0.17
2013-5-28,65,54,44,43,38,32,88,59,31,0.00,40.00,12,4,19,0.04
2013-5-29,65,55,46,43,36,31,82,53,31,0.00,40.00,12,7,25,0.01
2013-5-30,67,53,39,38,30,20,76,46,20,0.00,40.00,9,6,20,0.00
2013-5-31,73,60,35,42,34,27,88,44,19,0.00,40.00,8,4,19,0.00
2013-6-1,80,69,49,45,38,30,67,34,19,0.00,40.00,9,6,21,0.00
2013-6-2,78,68,53,46,38,29,62,36,19,0.00,40.00,11,6,20,0.00
2013-6-3,81,65,41,43,35,30,81,38,16,0.00,40.00,10,3,20,0.00
2013-6-4,84,73,47,48,37,30,68,31,16,0.00,40.00,7,4,13,0.00
2013-6-5,87,73,51,51,43,36,82,39,17,0.00,40.00,9,4,15,0.00
2013-6-6,91,73,50,55,46,33,92,46,15,0.00,40.00,9,5,18,0.00
2013-6-7,89,78,62,55,49,40,77,39,19,0.00,40.00,11,6,21,0.00
2013-6-8,91,76,49,54,42,35,81,35,16,0.00,40.00,9,5,19,0.00
2013-6-9,92,79,58,57,47,36,79,36,21,0.00,40.00,9,5,20,0.00
2013-6-10,83,74,60,51,38,25,45,28,17,0.00,40.00,10,6,21,0.00
2013-6-11,74,61,50,48,38,30,82,45,20,0.00,40.00,12,6,21,0.00
2013-6-12,68,54,43,38,33,20,71,48,19,0.00,40.00,10,7,24,0.00
2013-6-13,61,52,41,38,32,27,77,49,31,0.00,40.00,8,6,20,0.00
2013-6-14,74,54,34,38,31,17,94,49,14,0.00,40.00,6,3,14,0.00
2013-6-15,82,63,36,46,36,33,93,44,18,0.00,40.00,8,4,22,0.00
2013-6-16,79,66,45,50,43,34,92,47,23,0.00,40.00,7,4,16,0.00
2013-6-17,80,61,41,47,41,34,93,53,22,0.00,40.00,13,5,26,0.00
2013-6-18,63,53,43,45,40,34,88,65,37,0.00,40.00,13,6,24,0.11
2013-6-19,55,47,40,46,38,35,87,72,52,0.00,40.00,9,5,23,0.11
2013-6-20,61,47,37,42,38,35,96,73,40,0.00,40.00,6,4,13,0.01
2013-6-22,78,68,54,47,40,35,77,38,24,0.00,40.00,6,4,15,0.00
2013-6-23,68,60,51,54,46,38,85,63,40,0.00,40.00,13,6,25,0.07
2013-6-24,58,53,49,51,46,42,98,79,62,0.00,40.00,14,6,25,0.45
2013-6-25,65,55,49,54,51,46,96,86,59,0.00,40.00,11,5,22,0.12
2013-6-26,72,60,53,56,51,46,100,76,41,0.00,40.00,4,2,10,0.32
2013-6-27,87,67,48,54,49,46,94,61,25,0.00,40.00,4,2,8,0.00
2013-6-28,92,74,56,60,51,45,82,50,20,0.00,40.00,4,2,9,0.00
2013-6-29,90,73,58,57,49,40,80,48,19,0.00,40.00,4,2,9,0.00
2013-6-30,97,77,58,57,48,43,71,40,16,0.00,40.00,4,2,9,0.00
2013-7-1,96,78,62,60,53,45,78,46,19,0.00,40.00,4,2,10,0.00
2013-7-2,99,81,64,62,55,43,73,45,18,0.00,40.00,4,2,8,0.00
2013-7-3,96,78,65,59,53,45,68,44,20,0.00,40.00,4,2,10,0.00
2013-7-4,88,71,58,50,43,39,58,39,20,0.00,40.00,4,2,9,0.00
2013-7-5,85,73,59,46,41,36,52,34,19,0.00,40.00,5,3,10,0.00
2013-7-6,86,67,53,44,41,38,58,40,19,0.00,40.00,4,2,9,0.00
2013-7-7,87,71,54,51,45,40,61,41,22,0.00,40.00,4,2,8,0.00
2013-7-8,88,68,55,50,44,34,68,45,17,0.00,40.00,5,2,9,0.00
2013-7-9,92,71,56,52,40,19,64,39,8,0.00,40.00,4,2,9,0.00
2013-7-10,90,72,59,50,38,-100,67,36,12,0.00,40.00,4,2,9,0.00
2013-7-11,87,70,55,51,42,29,67,41,13,0.00,40.00,4,2,9,0.00
2013-7-12,85,64,51,45,38,33,64,42,17,0.00,40.00,4,2,12,0.00
2013-7-13,84,66,49,42,39,34,60,40,23,0.00,40.00,4,2,9,0.00
2013-7-14,88,74,54,43,37,27,54,29,15,0.00,40.00,4,2,9,0.00
2013-7-15,90,74,57,50,40,32,54,33,15,0.00,40.00,4,2,8,0.00
2013-7-16,86,76,62,37,27,15,35,19,8,0.00,40.00,5,3,10,0.00
2013-7-17,85,67,49,43,36,30,58,34,16,0.00,40.00,4,2,9,0.00
2013-7-18,93,79,58,43,39,29,52,26,11,0.00,40.00,4,3,9,0.00
2013-7-19,95,82,65,46,40,34,44,25,13,0.00,40.00,5,3,11,0.00
2013-7-20,99,86,69,44,32,-100,40,16,10,0.00,40.00,4,4,9,0.00
2013-7-21,99,85,63,45,39,25,44,22,8,0.00,40.00,4,3,9,0.00
2013-7-22,97,84,61,49,41,29,42,23,11,0.00,40.00,4,3,9,0.00
2013-7-23,96,80,63,51,40,32,37,25,12,0.00,40.00,4,3,10,0.00
2013-7-24,87,77,62,50,44,37,43,32,20,0.00,40.00,3,2,7,0.00
2013-7-25,96,77,63,49,42,35,49,32,12,0.00,40.00,4,2,8,0.00
2013-7-26,92,76,63,53,48,44,52,38,27,0.00,40.00,4,2,8,0.00
2013-7-27,91,73,57,51,43,33,64,38,15,0.00,40.00,4,2,9,0.00
2013-7-28,86,72,52,37,31,19,48,25,10,0.00,40.00,4,2,10,0.00
2013-7-29,87,68,51,43,37,31,52,34,15,0.00,40.00,4,2,8,0.00
2013-7-30,86,68,52,43,37,29,57,36,14,0.00,40.00,3,2,8,0.00
2013-7-31,80,68,58,48,42,33,52,39,20,0.00,40.00,4,2,9,0.00
2013-8-1,76,63,49,48,38,30,70,44,20,0.00,40.00,4,2,13,0.00
2013-8-2,78,59,40,44,36,28,81,47,18,0.00,40.00,4,2,8,0.00
2013-8-3,83,69,51,42,35,27,63,33,14,0.00,40.00,5,3,9,0.00
2013-8-4,88,77,62,43,37,27,49,26,12,0.00,40.00,4,3,8,0.00
2013-8-5,89,71,56,46,40,35,57,36,17,0.00,40.00,4,2,7,0.00
2013-8-6,89,73,56,47,41,32,63,36,14,0.00,40.00,4,2,11,0.00
2013-8-7,78,66,57,55,46,41,93,53,29,0.00,40.00,5,2,10,0.03
2013-8-8,76,62,50,48,42,39,75,51,29,0.00,40.00,4,2,10,0.01
2013-8-9,72,61,49,50,43,39,77,54,32,0.00,40.00,4,2,12,0.00
2013-8-10,72,62,49,51,43,36,87,55,27,0.00,40.00,3,2,8,0.00
2013-8-11,80,64,47,48,43,35,85,51,23,0.00,40.00,4,2,9,0.00
2013-8-12,83,62,50,55,45,37,86,58,21,0.00,40.00,4,2,9,0.08
2013-8-13,88,68,51,50,43,-100,81,48,18,0.00,40.00,4,2,9,0.08
2013-8-14,89,69,54,51,44,36,77,45,19,0.00,40.00,3,2,12,0.00
2013-8-15,91,63,53,45,27,-100,58,36,16,0.00,40.00,4,2,9,0.00
2013-8-16,90,67,55,50,43,-100,80,49,20,0.00,40.00,4,2,8,0.00
2013-8-17,88,69,56,57,49,41,82,53,21,0.00,40.00,4,2,11,0.00
2013-8-18,91,72,55,52,46,39,73,44,20,0.00,40.00,4,2,9,0.00
2013-8-21,88,78,66,45,40,34,46,27,17,0.00,40.00,3,2,7,0.00
2013-8-22,78,60,49,59,47,42,92,64,38,0.00,40.00,4,2,8,0.18
2013-8-23,82,62,45,51,44,36,93,58,21,0.00,40.00,4,2,7,0.01
2013-8-24,78,62,49,53,46,40,92,60,29,0.00,40.00,4,2,9,0.00
2013-8-25,71,58,49,55,48,44,93,71,41,0.00,40.00,5,2,10,0.09
2013-8-26,77,60,47,51,44,40,96,63,28,0.00,40.00,3,2,10,0.03
2013-8-27,73,54,47,48,44,41,92,73,32,0.00,40.00,3,2,7,0.00
2013-8-28,85,74,57,39,35,32,44,25,16,0.00,40.00,4,3,10,0.00
2013-8-29,81,67,56,47,42,37,66,42,23,0.00,40.00,4,2,10,0.00
2013-8-30,85,66,50,53,46,37,91,55,22,0.00,40.00,4,2,8,0.00
2013-8-31,90,68,51,51,42,26,81,47,14,0.00,40.00,4,2,10,0.00
2013-9-1,89,68,52,42,33,23,51,31,9,0.00,40.00,5,3,10,0.00
2013-9-2,82,64,50,47,40,30,75,45,18,0.00,40.00,4,2,10,0.00
2013-9-3,82,61,47,46,39,26,86,51,16,0.00,40.00,4,2,9,0.00
2013-9-4,83,63,47,45,38,23,80,48,13,0.00,40.00,4,2,9,0.00
2013-9-5,72,55,45,50,44,38,90,69,36,0.00,40.00,4,2,9,0.14
2013-9-6,72,55,40,46,42,36,97,66,29,0.00,40.00,4,2,11,0.14
2013-9-7,82,65,48,48,41,27,81,48,16,0.00,40.00,3,2,8,0.00
2013-9-17,60,51,42,48,42,35,92,72,55,0.00,40.00,4,2,12,0.08
2013-9-18,47,41,35,37,33,28,90,75,48,0.00,40.00,3,2,4,0.08
2013-9-19,76,62,42,37,30,24,72,35,16,0.00,40.00,4,3,7,0.00
2013-9-20,78,59,45,46,32,17,94,46,10,0.00,40.00,5,3,12,0.16
2013-9-21,53,46,42,47,43,39,98,90,68,0.00,40.00,3,1,6,0.24
2013-9-22,57,47,41,45,41,39,94,80,55,0.00,40.00,4,2,9,0.01
2013-9-23,68,53,45,48,44,39,98,76,40,0.00,40.00,4,2,8,0.02
2013-9-24,52,46,39,44,41,36,96,84,60,0.00,40.00,4,2,11,0.29
2013-9-25,45,38,32,38,33,29,93,81,61,0.00,40.00,4,2,9,0.08
2013-9-26,51,40,31,33,30,28,93,70,43,0.00,40.00,4,2,9,0.01
2013-9-27,59,45,30,38,30,24,93,61,29,0.00,40.00,4,2,9,0.00
2013-9-28,65,53,41,43,35,30,70,51,36,0.00,40.00,6,3,14,0.00
2013-9-29,55,51,48,49,46,37,95,82,51,0.00,40.00,6,3,14,0.33
2013-9-30,55,50,38,48,42,34,95,76,51,0.00,40.00,4,3,11,0.31
2013-10-3,51,40,30,32,27,24,94,64,37,0.00,40.00,5,3,11,0.00
2013-10-4,56,42,31,30,26,22,86,56,28,0.00,40.00,5,2,9,0.00
2013-10-5,66,48,35,26,23,18,64,42,17,0.00,40.00,3,2,6,0.00
2013-10-6,71,59,41,30,26,20,51,30,17,0.00,40.00,3,2,6,0.00
2013-10-7,61,46,34,34,29,21,77,54,24,0.00,40.00,5,2,9,0.00
2013-10-8,54,39,28,34,30,25,91,72,44,0.00,40.00,3,2,8,0.00
2013-10-9,49,40,33,31,28,26,81,64,42,0.00,40.00,6,4,14,0.00
2013-10-21,69,60,46,35,29,25,50,32,23,0.00,40.00,3,2,6,0.00
2013-10-22,70,60,45,35,29,23,56,31,24,0.00,40.00,3,2,6,0.00
2013-10-23,69,60,45,36,27,19,55,30,17,0.00,40.00,3,2,5,0.00
2013-10-24,69,60,48,35,27,20,51,30,21,0.00,40.00,3,2,6,0.00
2013-10-25,66,58,47,33,27,20,54,31,23,0.00,40.00,3,2,5,0.00
2013-10-26,67,61,47,36,28,19,61,30,17,0.00,40.00,3,2,5,0.00
2013-10-27,57,44,36,35,28,19,74,56,24,0.00,40.00,6,3,17,0.00
2013-10-28,38,36,32,33,27,-100,88,74,64,0.00,40.00,5,3,12,0.00
2013-10-29,47,34,25,27,23,19,83,65,43,0.00,40.00,3,2,6,0.00
2013-10-30,53,38,28,35,30,25,95,74,49,0.00,40.00,3,2,6,0.00
2013-10-31,60,44,33,37,32,28,83,65,42,0.00,40.00,3,2,6,0.00
2013-11-1,57,47,33,39,34,30,94,61,45,0.00,40.00,3,2,6,0.00
2013-11-2,48,39,30,40,32,25,91,77,63,0.00,40.00,3,1,9,0.07
2013-11-3,39,31,26,28,25,21,90,77,51,0.00,40.00,3,1,9,0.03
2013-11-4,43,32,23,28,24,20,89,74,52,0.00,40.00,3,2,7,0.00
2013-11-5,45,36,30,43,34,25,97,92,81,0.00,40.00,2,1,5,0.06
2013-11-6,54,45,37,43,40,36,98,85,60,0.00,40.00,3,1,6,0.01
2013-11-7,55,47,42,42,39,35,92,74,54,0.00,40.00,4,2,9,0.02
2013-11-8,50,38,31,38,32,26,96,79,50,0.00,40.00,3,1,6,0.01
2013-11-9,55,41,30,34,30,23,80,65,42,0.00,40.00,3,2,5,0.00
2013-11-10,58,46,37,35,28,18,83,51,35,0.00,40.00,2,1,4,0.00
2013-11-11,61,48,38,27,20,14,49,34,18,0.00,40.00,4,1,8,0.00
2013-11-12,59,53,48,41,29,18,71,42,27,0.00,40.00,0,0,0,0.00
2013-11-13,59,47,39,45,33,17,93,62,30,0.00,40.00,0,0,0,0.00
2013-11-14,54,41,30,30,25,20,80,57,28,0.00,40.00,2,0,5,0.02
2013-11-15,42,32,25,28,24,20,91,73,53,0.00,40.00,3,2,8,0.02
2013-11-16,46,35,29,35,29,23,95,80,58,0.00,40.00,4,2,12,0.03
2013-11-17,45,33,26,35,27,25,96,80,46,0.00,40.00,3,1,5,0.01
2013-11-18,44,37,31,37,30,27,96,77,60,0.00,40.00,2,1,4,0.05
2013-11-19,48,41,37,41,37,36,98,87,71,0.00,40.00,4,1,8,0.09
2013-11-20,42,36,26,39,32,17,98,86,67,0.00,40.00,5,2,9,0.07
2013-11-21,37,29,20,14,-3,-100,62,31,18,0.00,40.00,7,2,12,0.01
2013-11-22,45,34,24,11,-1,-100,42,26,16,0.00,40.00,5,3,9,0.00
2013-11-23,51,38,30,15,10,4,42,32,19,0.00,40.00,5,2,8,0.00
2013-11-24,47,32,25,19,1,-100,55,35,22,0.00,40.00,3,2,5,0.00
2013-11-25,48,41,33,17,14,11,44,33,26,0.00,40.00,2,2,5,0.00
2013-11-26,46,40,31,22,20,14,57,45,36,0.00,40.00,2,2,5,0.00
2013-11-27,48,39,31,25,23,21,65,53,37,0.00,40.00,2,2,7,0.00
2013-11-28,52,41,30,28,24,21,74,53,34,0.00,40.00,3,2,6,0.00
2013-11-29,49,42,37,29,26,23,60,53,44,0.00,40.00,3,2,5,0.00
2013-11-30,52,42,34,34,30,24,77,62,49,0.00,40.00,3,2,6,0.00
2013-12-1,55,43,36,40,34,29,86,71,53,0.00,40.00,4,2,9,0.00
2013-12-2,43,38,29,39,31,20,88,76,64,0.00,40.00,4,3,17,0.02
2013-12-3,32,26,16,20,15,6,85,63,48,0.00,40.00,2,0,9,0.01
2013-12-4,25,15,4,9,4,-1,81,64,45,0.00,40.00,0,0,0,0.00
2013-12-5,24,11,-1,8,2,-7,79,67,45,0.00,40.00,0,0,0,0.00
2013-12-6,29,21,8,22,14,2,91,77,52,0.00,40.00,0,0,0,0.00
2013-12-7,22,10,-12,20,4,-20,90,75,55,0.00,40.00,0,0,0,0.00
2013-12-8,10,-2,-15,-3,-18,-100,75,62,55,0.00,40.00,0,0,0,0.00
2013-12-12,34,18,7,22,12,2,86,78,42,0.00,40.00,3,2,6,0.09
2013-12-13,43,28,17,31,23,15,92,83,59,0.00,40.00,4,2,6,0.09
2013-12-14,38,21,13,28,17,10,90,84,66,0.00,40.00,3,2,6,0.03
2013-12-15,37,21,12,25,16,9,90,82,61,0.00,40.00,4,3,5,0.02
2013-12-16,40,23,14,26,18,11,90,82,57,0.00,40.00,3,3,6,0.01
2013-12-17,42,25,17,29,19,15,91,80,46,0.00,40.00,4,3,5,0.01
2013-12-18,44,28,16,30,21,13,90,79,58,0.00,40.00,4,2,6,0.00
2013-12-19,36,26,13,25,14,6,85,62,37,0.00,40.00,4,2,10,0.00
2013-12-20,39,25,10,38,17,4,97,72,47,0.00,40.00,5,2,6,0.02
2013-12-21,48,35,24,36,31,22,97,86,62,0.00,40.00,4,2,12,0.02
2013-12-22,54,31,24,43,28,22,95,86,58,0.00,40.00,4,1,11,0.00
2013-12-23,43,32,22,36,29,20,94,88,75,0.00,40.00,3,2,6,0.00
2013-12-24,38,29,19,34,27,17,96,92,76,0.00,40.00,4,2,13,0.00
2013-12-25,32,25,16,29,22,13,91,88,83,0.00,40.00,3,1,6,0.00
2013-12-26,43,25,16,29,19,13,91,81,46,0.00,40.00,3,3,5,0.00
2013-12-28,49,26,17,29,16,13,92,72,27,0.00,40.00,3,2,7,0.00
2013-12-29,39,24,15,18,14,10,81,67,36,0.00,40.00,3,3,5,0.00
2013-12-30,40,27,18,22,17,12,80,67,38,0.00,40.00,3,2,5,0.00
2013-12-31,49,32,25,30,22,20,81,68,34,0.00,40.00,4,2,7,0.00
2014-1-1,47,30,19,27,20,16,88,72,35,0.00,40.00,3,2,6,0.00
2014-1-2,47,30,20,29,23,17,91,76,43,0.00,40.00,3,3,6,0.00